This is the latest recevied weather packets stored in our database for station/object SA3ARQ-13. If no packets are shown the sender has not sent any weather packets the latest 10 day(s).
| Time | Temp. | Humidity | Pressure | Rain* | Wind** | Luminosity | Snow |
|---|---|---|---|---|---|---|---|
| 1777921642 | 15.56° C | 44% | 1000.2 hPa | - | - | - | - |
| 1777920742 | 16.11° C | 44% | 1000 hPa | - | - | - | - |
| 1777919842 | 16.11° C | 44% | 999.8 hPa | - | - | - | - |
| 1777918942 | 16.67° C | 44% | 999.7 hPa | - | - | - | - |
| 1777918042 | 17.22° C | 44% | 999.6 hPa | - | - | - | - |
| 1777916242 | 17.78° C | 44% | 999.1 hPa | - | - | - | - |
| 1777915342 | 17.78° C | 45% | 999.1 hPa | - | - | - | - |
| 1777914441 | 17.78° C | 45% | 999.1 hPa | - | - | - | - |
| 1777913541 | 17.78° C | 45% | 998.9 hPa | - | - | - | - |
| 1777912641 | 17.22° C | 44% | 999 hPa | - | - | - | - |
| 1777911741 | 17.78° C | 44% | 999 hPa | - | - | - | - |
| 1777910841 | 17.78° C | 44% | 998.8 hPa | - | - | - | - |
| 1777909041 | 17.78° C | 44% | 998.9 hPa | - | - | - | - |
| 1777907241 | 17.22° C | 44% | 999 hPa | - | - | - | - |
| 1777906341 | 17.22° C | 44% | 998.9 hPa | - | - | - | - |
| 1777905441 | 17.22° C | 44% | 998.9 hPa | - | - | - | - |
| 1777903641 | 17.22° C | 44% | 999 hPa | - | - | - | - |
| 1777902741 | 16.67° C | 44% | 999 hPa | - | - | - | - |
| 1777901841 | 17.22° C | 45% | 999 hPa | - | - | - | - |
| 1777900941 | 16.67° C | 44% | 998.9 hPa | - | - | - | - |
| 1777900041 | 16.67° C | 46% | 998.9 hPa | - | - | - | - |
| 1777898241 | 16.11° C | 46% | 999.4 hPa | - | - | - | - |
| 1777897341 | 16.11° C | 46% | 999.3 hPa | - | - | - | - |
| 1777896441 | 16.11° C | 46% | 999.3 hPa | - | - | - | - |
| 1777894641 | 15.56° C | 46% | 999.3 hPa | - | - | - | - |
* Rain since midnight (hover to see other rain measurements)
** Current wind speed in m/s (hover to see current wind gust speed)